<?xml version="1.0" encoding="UTF-8" standalone="no" ?>
<gpx xmlns="http://www.topografix.com/GPX/1/1" xmlns:xsi="http://www.w3.org/2001/XMLSchema-instance" xsi:schemaLocation="http://www.topografix.com/GPX/1/1 http://www.topografix.com/GPX/1/1/gpx.xsd" version="1.1" creator="VisuGPX - https://www.visugpx.com">
  <metadata>
    <name>Circuit du 07-06-2012</name>
    <desc><![CDATA[Circuit du 07-06-2012]]></desc>
  </metadata>
  <wpt lat="45.37602" lon="3.74887">
    <ele>711.90002441406</ele>
    <name><![CDATA[Start]]></name>
  </wpt>
  <wpt lat="45.3809" lon="3.74873">
    <ele>659.90002441406</ele>
    <name><![CDATA[End]]></name>
  </wpt>
  <trk>
    <name><![CDATA[Circuit du 07-06-2012_1]]></name>
    <trkseg>
      <trkpt lat="45.37602" lon="3.74887">
        <ele>711.90002441406</ele>
        <time>2012-06-07T09:47:02Z</time>
      </trkpt>
      <trkpt lat="45.37596" lon="3.74885">
        <ele>708.59997558594</ele>
        <time>2012-06-07T09:47:17Z</time>
      </trkpt>
      <trkpt lat="45.37595" lon="3.7489">
        <ele>709.06072998047</ele>
        <time>2012-06-07T09:47:18Z</time>
      </trkpt>
      <trkpt lat="45.3759" lon="3.74888">
        <ele>708</ele>
        <time>2012-06-07T09:47:22Z</time>
      </trkpt>
      <trkpt lat="45.37583" lon="3.74879">
        <ele>705.59997558594</ele>
        <time>2012-06-07T09:47:28Z</time>
      </trkpt>
      <trkpt lat="45.3758" lon="3.74871">
        <ele>703.59997558594</ele>
        <time>2012-06-07T09:47:31Z</time>
      </trkpt>
      <trkpt lat="45.37578" lon="3.74863">
        <ele>704</ele>
        <time>2012-06-07T09:47:34Z</time>
      </trkpt>
      <trkpt lat="45.37574" lon="3.74856">
        <ele>704.79998779297</ele>
        <time>2012-06-07T09:47:37Z</time>
      </trkpt>
      <trkpt lat="45.37568" lon="3.74851">
        <ele>706.59997558594</ele>
        <time>2012-06-07T09:47:41Z</time>
      </trkpt>
      <trkpt lat="45.37564" lon="3.74847">
        <ele>706.79998779297</ele>
        <time>2012-06-07T09:47:43Z</time>
      </trkpt>
      <trkpt lat="45.37559" lon="3.74849">
        <ele>706.90002441406</ele>
        <time>2012-06-07T09:47:45Z</time>
      </trkpt>
      <trkpt lat="45.37555" lon="3.74844">
        <ele>705.79998779297</ele>
        <time>2012-06-07T09:47:48Z</time>
      </trkpt>
      <trkpt lat="45.37549" lon="3.74837">
        <ele>706</ele>
        <time>2012-06-07T09:47:52Z</time>
      </trkpt>
      <trkpt lat="45.37546" lon="3.74832">
        <ele>705.5</ele>
        <time>2012-06-07T09:47:55Z</time>
      </trkpt>
      <trkpt lat="45.37542" lon="3.74827">
        <ele>705.20001220703</ele>
        <time>2012-06-07T09:47:57Z</time>
      </trkpt>
      <trkpt lat="45.37539" lon="3.74818">
        <ele>704.40002441406</ele>
        <time>2012-06-07T09:48:00Z</time>
      </trkpt>
      <trkpt lat="45.37544" lon="3.74808">
        <ele>701.29998779297</ele>
        <time>2012-06-07T09:48:02Z</time>
      </trkpt>
      <trkpt lat="45.37538" lon="3.74802">
        <ele>695.79998779297</ele>
        <time>2012-06-07T09:48:05Z</time>
      </trkpt>
      <trkpt lat="45.37534" lon="3.74795">
        <ele>692.79998779297</ele>
        <time>2012-06-07T09:48:07Z</time>
      </trkpt>
      <trkpt lat="45.37531" lon="3.74788">
        <ele>692.40002441406</ele>
        <time>2012-06-07T09:48:11Z</time>
      </trkpt>
      <trkpt lat="45.37526" lon="3.74782">
        <ele>693.90002441406</ele>
        <time>2012-06-07T09:48:13Z</time>
      </trkpt>
      <trkpt lat="45.37522" lon="3.74768">
        <ele>694</ele>
        <time>2012-06-07T09:48:18Z</time>
      </trkpt>
      <trkpt lat="45.37519" lon="3.74757">
        <ele>695.29998779297</ele>
        <time>2012-06-07T09:48:22Z</time>
      </trkpt>
      <trkpt lat="45.37514" lon="3.74746">
        <ele>693.90002441406</ele>
        <time>2012-06-07T09:48:23Z</time>
      </trkpt>
      <trkpt lat="45.37511" lon="3.74739">
        <ele>692.90002441406</ele>
        <time>2012-06-07T09:48:26Z</time>
      </trkpt>
      <trkpt lat="45.37508" lon="3.74733">
        <ele>694.29998779297</ele>
        <time>2012-06-07T09:48:28Z</time>
      </trkpt>
      <trkpt lat="45.37506" lon="3.74727">
        <ele>695.70001220703</ele>
        <time>2012-06-07T09:48:31Z</time>
      </trkpt>
      <trkpt lat="45.375" lon="3.74718">
        <ele>694.09997558594</ele>
        <time>2012-06-07T09:48:36Z</time>
      </trkpt>
      <trkpt lat="45.37495" lon="3.74715">
        <ele>694.5</ele>
        <time>2012-06-07T09:48:38Z</time>
      </trkpt>
      <trkpt lat="45.37489" lon="3.74712">
        <ele>694.29998779297</ele>
        <time>2012-06-07T09:48:41Z</time>
      </trkpt>
      <trkpt lat="45.37483" lon="3.74712">
        <ele>694.70001220703</ele>
        <time>2012-06-07T09:48:44Z</time>
      </trkpt>
      <trkpt lat="45.37479" lon="3.74707">
        <ele>695.40002441406</ele>
        <time>2012-06-07T09:48:47Z</time>
      </trkpt>
      <trkpt lat="45.37472" lon="3.74705">
        <ele>695</ele>
        <time>2012-06-07T09:48:50Z</time>
      </trkpt>
      <trkpt lat="45.37467" lon="3.74703">
        <ele>695.29998779297</ele>
        <time>2012-06-07T09:48:53Z</time>
      </trkpt>
      <trkpt lat="45.37463" lon="3.747">
        <ele>696.5</ele>
        <time>2012-06-07T09:48:55Z</time>
      </trkpt>
      <trkpt lat="45.37458" lon="3.74694">
        <ele>696.40002441406</ele>
        <time>2012-06-07T09:48:58Z</time>
      </trkpt>
      <trkpt lat="45.37453" lon="3.74691">
        <ele>697.90002441406</ele>
        <time>2012-06-07T09:49:01Z</time>
      </trkpt>
      <trkpt lat="45.37449" lon="3.74687">
        <ele>698.40002441406</ele>
        <time>2012-06-07T09:49:04Z</time>
      </trkpt>
      <trkpt lat="45.37445" lon="3.74683">
        <ele>698.5</ele>
        <time>2012-06-07T09:49:07Z</time>
      </trkpt>
      <trkpt lat="45.3744" lon="3.7468">
        <ele>699.40002441406</ele>
        <time>2012-06-07T09:49:09Z</time>
      </trkpt>
      <trkpt lat="45.37435" lon="3.74676">
        <ele>700.90002441406</ele>
        <time>2012-06-07T09:49:13Z</time>
      </trkpt>
      <trkpt lat="45.37431" lon="3.74673">
        <ele>701.79998779297</ele>
        <time>2012-06-07T09:49:15Z</time>
      </trkpt>
      <trkpt lat="45.37424" lon="3.74669">
        <ele>703.09997558594</ele>
        <time>2012-06-07T09:49:18Z</time>
      </trkpt>
      <trkpt lat="45.37417" lon="3.74662">
        <ele>703.40002441406</ele>
        <time>2012-06-07T09:49:21Z</time>
      </trkpt>
      <trkpt lat="45.37412" lon="3.7466">
        <ele>704.20001220703</ele>
        <time>2012-06-07T09:49:23Z</time>
      </trkpt>
      <trkpt lat="45.37406" lon="3.74656">
        <ele>704.59997558594</ele>
        <time>2012-06-07T09:49:26Z</time>
      </trkpt>
      <trkpt lat="45.37402" lon="3.74654">
        <ele>704.59997558594</ele>
        <time>2012-06-07T09:49:28Z</time>
      </trkpt>
      <trkpt lat="45.37396" lon="3.74653">
        <ele>706</ele>
        <time>2012-06-07T09:49:32Z</time>
      </trkpt>
      <trkpt lat="45.37391" lon="3.74648">
        <ele>705.29998779297</ele>
        <time>2012-06-07T09:49:35Z</time>
      </trkpt>
      <trkpt lat="45.37386" lon="3.74644">
        <ele>705.20001220703</ele>
        <time>2012-06-07T09:49:38Z</time>
      </trkpt>
      <trkpt lat="45.37383" lon="3.74637">
        <ele>705.29998779297</ele>
        <time>2012-06-07T09:49:41Z</time>
      </trkpt>
      <trkpt lat="45.3738" lon="3.7463">
        <ele>706.09997558594</ele>
        <time>2012-06-07T09:49:45Z</time>
      </trkpt>
      <trkpt lat="45.37374" lon="3.74617">
        <ele>706.20001220703</ele>
        <time>2012-06-07T09:49:53Z</time>
      </trkpt>
      <trkpt lat="45.37371" lon="3.74611">
        <ele>705.90002441406</ele>
        <time>2012-06-07T09:49:56Z</time>
      </trkpt>
      <trkpt lat="45.37366" lon="3.74604">
        <ele>705.5</ele>
        <time>2012-06-07T09:50:00Z</time>
      </trkpt>
      <trkpt lat="45.37363" lon="3.74595">
        <ele>706.29998779297</ele>
        <time>2012-06-07T09:50:05Z</time>
      </trkpt>
      <trkpt lat="45.37359" lon="3.74589">
        <ele>706.59997558594</ele>
        <time>2012-06-07T09:50:08Z</time>
      </trkpt>
      <trkpt lat="45.37356" lon="3.74582">
        <ele>707.70001220703</ele>
        <time>2012-06-07T09:50:12Z</time>
      </trkpt>
      <trkpt lat="45.37352" lon="3.74577">
        <ele>708.40002441406</ele>
        <time>2012-06-07T09:50:15Z</time>
      </trkpt>
      <trkpt lat="45.37348" lon="3.7457">
        <ele>708.90002441406</ele>
        <time>2012-06-07T09:50:18Z</time>
      </trkpt>
      <trkpt lat="45.37344" lon="3.74565">
        <ele>710.20001220703</ele>
        <time>2012-06-07T09:50:21Z</time>
      </trkpt>
      <trkpt lat="45.37339" lon="3.74561">
        <ele>710.5</ele>
        <time>2012-06-07T09:50:24Z</time>
      </trkpt>
      <trkpt lat="45.37335" lon="3.74558">
        <ele>710.29998779297</ele>
        <time>2012-06-07T09:50:26Z</time>
      </trkpt>
      <trkpt lat="45.3733" lon="3.74553">
        <ele>710.79998779297</ele>
        <time>2012-06-07T09:50:30Z</time>
      </trkpt>
      <trkpt lat="45.37326" lon="3.74548">
        <ele>711.29998779297</ele>
        <time>2012-06-07T09:50:33Z</time>
      </trkpt>
      <trkpt lat="45.37321" lon="3.74542">
        <ele>711.90002441406</ele>
        <time>2012-06-07T09:50:37Z</time>
      </trkpt>
      <trkpt lat="45.37317" lon="3.74536">
        <ele>713.20001220703</ele>
        <time>2012-06-07T09:50:41Z</time>
      </trkpt>
      <trkpt lat="45.37311" lon="3.74534">
        <ele>713.40002441406</ele>
        <time>2012-06-07T09:50:44Z</time>
      </trkpt>
      <trkpt lat="45.37306" lon="3.74531">
        <ele>714.29998779297</ele>
        <time>2012-06-07T09:50:48Z</time>
      </trkpt>
      <trkpt lat="45.37301" lon="3.74525">
        <ele>715.59997558594</ele>
        <time>2012-06-07T09:50:51Z</time>
      </trkpt>
      <trkpt lat="45.37295" lon="3.74523">
        <ele>715.59997558594</ele>
        <time>2012-06-07T09:50:54Z</time>
      </trkpt>
      <trkpt lat="45.37291" lon="3.74519">
        <ele>715.79998779297</ele>
        <time>2012-06-07T09:50:56Z</time>
      </trkpt>
      <trkpt lat="45.37288" lon="3.74515">
        <ele>715.59997558594</ele>
        <time>2012-06-07T09:50:58Z</time>
      </trkpt>
      <trkpt lat="45.37283" lon="3.74511">
        <ele>715.79998779297</ele>
        <time>2012-06-07T09:51:11Z</time>
      </trkpt>
      <trkpt lat="45.37277" lon="3.74502">
        <ele>717.70001220703</ele>
        <time>2012-06-07T09:51:13Z</time>
      </trkpt>
      <trkpt lat="45.37273" lon="3.74494">
        <ele>718.70001220703</ele>
        <time>2012-06-07T09:51:15Z</time>
      </trkpt>
      <trkpt lat="45.37269" lon="3.7449">
        <ele>719.79998779297</ele>
        <time>2012-06-07T09:51:18Z</time>
      </trkpt>
      <trkpt lat="45.37266" lon="3.74482">
        <ele>720.70001220703</ele>
        <time>2012-06-07T09:51:20Z</time>
      </trkpt>
      <trkpt lat="45.37262" lon="3.74476">
        <ele>720.5</ele>
        <time>2012-06-07T09:51:22Z</time>
      </trkpt>
      <trkpt lat="45.3726" lon="3.74469">
        <ele>720.40002441406</ele>
        <time>2012-06-07T09:51:25Z</time>
      </trkpt>
      <trkpt lat="45.37257" lon="3.74464">
        <ele>720.40002441406</ele>
        <time>2012-06-07T09:51:28Z</time>
      </trkpt>
      <trkpt lat="45.37254" lon="3.74458">
        <ele>721.20001220703</ele>
        <time>2012-06-07T09:51:30Z</time>
      </trkpt>
      <trkpt lat="45.3725" lon="3.74447">
        <ele>721.20001220703</ele>
        <time>2012-06-07T09:51:33Z</time>
      </trkpt>
      <trkpt lat="45.37248" lon="3.74439">
        <ele>722.29998779297</ele>
        <time>2012-06-07T09:51:36Z</time>
      </trkpt>
      <trkpt lat="45.37245" lon="3.74433">
        <ele>722.40002441406</ele>
        <time>2012-06-07T09:51:38Z</time>
      </trkpt>
      <trkpt lat="45.37243" lon="3.74427">
        <ele>723.20001220703</ele>
        <time>2012-06-07T09:51:41Z</time>
      </trkpt>
      <trkpt lat="45.3724" lon="3.74418">
        <ele>724.79998779297</ele>
        <time>2012-06-07T09:51:46Z</time>
      </trkpt>
      <trkpt lat="45.37235" lon="3.74407">
        <ele>724.29998779297</ele>
        <time>2012-06-07T09:51:51Z</time>
      </trkpt>
      <trkpt lat="45.37235" lon="3.74399">
        <ele>725.40002441406</ele>
        <time>2012-06-07T09:51:55Z</time>
      </trkpt>
      <trkpt lat="45.37244" lon="3.74398">
        <ele>728</ele>
        <time>2012-06-07T09:52:16Z</time>
      </trkpt>
      <trkpt lat="45.37248" lon="3.74401">
        <ele>728.09997558594</ele>
        <time>2012-06-07T09:52:18Z</time>
      </trkpt>
      <trkpt lat="45.37253" lon="3.74408">
        <ele>727.09997558594</ele>
        <time>2012-06-07T09:52:20Z</time>
      </trkpt>
      <trkpt lat="45.37257" lon="3.74408">
        <ele>727.90002441406</ele>
        <time>2012-06-07T09:52:21Z</time>
      </trkpt>
      <trkpt lat="45.37267" lon="3.74406">
        <ele>727.79998779297</ele>
        <time>2012-06-07T09:52:23Z</time>
      </trkpt>
      <trkpt lat="45.37272" lon="3.74409">
        <ele>726.90002441406</ele>
        <time>2012-06-07T09:52:25Z</time>
      </trkpt>
      <trkpt lat="45.37277" lon="3.7441">
        <ele>726.29998779297</ele>
        <time>2012-06-07T09:52:26Z</time>
      </trkpt>
      <trkpt lat="45.37283" lon="3.74411">
        <ele>727.09997558594</ele>
        <time>2012-06-07T09:52:29Z</time>
      </trkpt>
      <trkpt lat="45.3729" lon="3.74412">
        <ele>728.09997558594</ele>
        <time>2012-06-07T09:52:31Z</time>
      </trkpt>
      <trkpt lat="45.37296" lon="3.74412">
        <ele>728.70001220703</ele>
        <time>2012-06-07T09:52:32Z</time>
      </trkpt>
      <trkpt lat="45.373" lon="3.74414">
        <ele>729.09997558594</ele>
        <time>2012-06-07T09:52:34Z</time>
      </trkpt>
      <trkpt lat="45.37307" lon="3.74417">
        <ele>728</ele>
        <time>2012-06-07T09:52:37Z</time>
      </trkpt>
      <trkpt lat="45.37312" lon="3.7442">
        <ele>727.40002441406</ele>
        <time>2012-06-07T09:52:40Z</time>
      </trkpt>
      <trkpt lat="45.37318" lon="3.74422">
        <ele>726.29998779297</ele>
        <time>2012-06-07T09:52:45Z</time>
      </trkpt>
      <trkpt lat="45.37324" lon="3.74423">
        <ele>725.29998779297</ele>
        <time>2012-06-07T09:52:48Z</time>
      </trkpt>
      <trkpt lat="45.37329" lon="3.74423">
        <ele>723.90002441406</ele>
        <time>2012-06-07T09:52:52Z</time>
      </trkpt>
      <trkpt lat="45.37334" lon="3.74421">
        <ele>723.29998779297</ele>
        <time>2012-06-07T09:52:54Z</time>
      </trkpt>
      <trkpt lat="45.3734" lon="3.7442">
        <ele>724.09997558594</ele>
        <time>2012-06-07T09:52:57Z</time>
      </trkpt>
      <trkpt lat="45.37345" lon="3.74419">
        <ele>721.79998779297</ele>
        <time>2012-06-07T09:53:02Z</time>
      </trkpt>
      <trkpt lat="45.3735" lon="3.74417">
        <ele>722</ele>
        <time>2012-06-07T09:53:04Z</time>
      </trkpt>
      <trkpt lat="45.37356" lon="3.74415">
        <ele>722.59997558594</ele>
        <time>2012-06-07T09:53:06Z</time>
      </trkpt>
      <trkpt lat="45.37362" lon="3.74412">
        <ele>720.5</ele>
        <time>2012-06-07T09:53:09Z</time>
      </trkpt>
      <trkpt lat="45.37367" lon="3.74414">
        <ele>721</ele>
        <time>2012-06-07T09:53:12Z</time>
      </trkpt>
      <trkpt lat="45.37372" lon="3.74409">
        <ele>719.79998779297</ele>
        <time>2012-06-07T09:53:14Z</time>
      </trkpt>
      <trkpt lat="45.37378" lon="3.74403">
        <ele>718.20001220703</ele>
        <time>2012-06-07T09:53:16Z</time>
      </trkpt>
      <trkpt lat="45.37383" lon="3.74404">
        <ele>717.70001220703</ele>
        <time>2012-06-07T09:53:19Z</time>
      </trkpt>
      <trkpt lat="45.37387" lon="3.74398">
        <ele>718</ele>
        <time>2012-06-07T09:53:22Z</time>
      </trkpt>
      <trkpt lat="45.37392" lon="3.74397">
        <ele>719.09997558594</ele>
        <time>2012-06-07T09:53:27Z</time>
      </trkpt>
      <trkpt lat="45.37397" lon="3.74394">
        <ele>720.20001220703</ele>
        <time>2012-06-07T09:53:30Z</time>
      </trkpt>
      <trkpt lat="45.37401" lon="3.7439">
        <ele>720.5</ele>
        <time>2012-06-07T09:53:32Z</time>
      </trkpt>
      <trkpt lat="45.37407" lon="3.74384">
        <ele>721.09997558594</ele>
        <time>2012-06-07T09:53:35Z</time>
      </trkpt>
      <trkpt lat="45.37414" lon="3.74378">
        <ele>721.40002441406</ele>
        <time>2012-06-07T09:53:39Z</time>
      </trkpt>
      <trkpt lat="45.37419" lon="3.74375">
        <ele>721.79998779297</ele>
        <time>2012-06-07T09:53:44Z</time>
      </trkpt>
      <trkpt lat="45.37425" lon="3.7437">
        <ele>721</ele>
        <time>2012-06-07T09:54:05Z</time>
      </trkpt>
      <trkpt lat="45.37434" lon="3.74365">
        <ele>720.90002441406</ele>
        <time>2012-06-07T09:54:10Z</time>
      </trkpt>
      <trkpt lat="45.37441" lon="3.74364">
        <ele>721.20001220703</ele>
        <time>2012-06-07T09:54:12Z</time>
      </trkpt>
      <trkpt lat="45.37446" lon="3.74363">
        <ele>721.09997558594</ele>
        <time>2012-06-07T09:54:15Z</time>
      </trkpt>
      <trkpt lat="45.37457" lon="3.74356">
        <ele>718.5</ele>
        <time>2012-06-07T09:54:18Z</time>
      </trkpt>
      <trkpt lat="45.37465" lon="3.74351">
        <ele>715.90002441406</ele>
        <time>2012-06-07T09:54:20Z</time>
      </trkpt>
      <trkpt lat="45.3747" lon="3.74348">
        <ele>715.09997558594</ele>
        <time>2012-06-07T09:54:21Z</time>
      </trkpt>
      <trkpt lat="45.37477" lon="3.74344">
        <ele>712.59997558594</ele>
        <time>2012-06-07T09:54:22Z</time>
      </trkpt>
      <trkpt lat="45.37484" lon="3.7434">
        <ele>712.29998779297</ele>
        <time>2012-06-07T09:54:24Z</time>
      </trkpt>
      <trkpt lat="45.3749" lon="3.74337">
        <ele>712.29998779297</ele>
        <time>2012-06-07T09:54:26Z</time>
      </trkpt>
      <trkpt lat="45.37495" lon="3.74336">
        <ele>711</ele>
        <time>2012-06-07T09:54:27Z</time>
      </trkpt>
      <trkpt lat="45.37502" lon="3.7433">
        <ele>708.09997558594</ele>
        <time>2012-06-07T09:54:29Z</time>
      </trkpt>
      <trkpt lat="45.37516" lon="3.74317">
        <ele>699.90002441406</ele>
        <time>2012-06-07T09:54:32Z</time>
      </trkpt>
      <trkpt lat="45.37523" lon="3.74316">
        <ele>701.29998779297</ele>
        <time>2012-06-07T09:54:34Z</time>
      </trkpt>
      <trkpt lat="45.37528" lon="3.74315">
        <ele>702.59997558594</ele>
        <time>2012-06-07T09:54:37Z</time>
      </trkpt>
      <trkpt lat="45.37534" lon="3.74314">
        <ele>701.79998779297</ele>
        <time>2012-06-07T09:54:41Z</time>
      </trkpt>
      <trkpt lat="45.37539" lon="3.74312">
        <ele>701.70001220703</ele>
        <time>2012-06-07T09:54:46Z</time>
      </trkpt>
      <trkpt lat="45.37546" lon="3.74308">
        <ele>701.20001220703</ele>
        <time>2012-06-07T09:54:51Z</time>
      </trkpt>
      <trkpt lat="45.37554" lon="3.74308">
        <ele>700.20001220703</ele>
        <time>2012-06-07T09:54:56Z</time>
      </trkpt>
      <trkpt lat="45.37564" lon="3.7431">
        <ele>700.70001220703</ele>
        <time>2012-06-07T09:55:21Z</time>
      </trkpt>
      <trkpt lat="45.37568" lon="3.74313">
        <ele>700.63726806641</ele>
        <time>2012-06-07T09:55:22Z</time>
      </trkpt>
      <trkpt lat="45.37579" lon="3.74313">
        <ele>700.59997558594</ele>
        <time>2012-06-07T09:55:24Z</time>
      </trkpt>
      <trkpt lat="45.37587" lon="3.74312">
        <ele>700.70001220703</ele>
        <time>2012-06-07T09:55:26Z</time>
      </trkpt>
      <trkpt lat="45.37594" lon="3.7431">
        <ele>701.5</ele>
        <time>2012-06-07T09:55:28Z</time>
      </trkpt>
      <trkpt lat="45.376" lon="3.74312">
        <ele>701.40002441406</ele>
        <time>2012-06-07T09:55:30Z</time>
      </trkpt>
      <trkpt lat="45.37605" lon="3.74315">
        <ele>701.20001220703</ele>
        <time>2012-06-07T09:55:31Z</time>
      </trkpt>
      <trkpt lat="45.37611" lon="3.74316">
        <ele>701</ele>
        <time>2012-06-07T09:55:33Z</time>
      </trkpt>
      <trkpt lat="45.37617" lon="3.74321">
        <ele>702.09997558594</ele>
        <time>2012-06-07T09:55:35Z</time>
      </trkpt>
      <trkpt lat="45.37621" lon="3.74324">
        <ele>702.20001220703</ele>
        <time>2012-06-07T09:55:38Z</time>
      </trkpt>
      <trkpt lat="45.37628" lon="3.74327">
        <ele>701.5</ele>
        <time>2012-06-07T09:55:41Z</time>
      </trkpt>
      <trkpt lat="45.37633" lon="3.74331">
        <ele>701.09997558594</ele>
        <time>2012-06-07T09:55:43Z</time>
      </trkpt>
      <trkpt lat="45.37637" lon="3.74337">
        <ele>701</ele>
        <time>2012-06-07T09:55:45Z</time>
      </trkpt>
      <trkpt lat="45.37643" lon="3.74337">
        <ele>699.90002441406</ele>
        <time>2012-06-07T09:55:47Z</time>
      </trkpt>
      <trkpt lat="45.37648" lon="3.74335">
        <ele>697</ele>
        <time>2012-06-07T09:55:50Z</time>
      </trkpt>
      <trkpt lat="45.37652" lon="3.74341">
        <ele>695.09997558594</ele>
        <time>2012-06-07T09:55:53Z</time>
      </trkpt>
      <trkpt lat="45.37657" lon="3.74344">
        <ele>692.90002441406</ele>
        <time>2012-06-07T09:55:55Z</time>
      </trkpt>
      <trkpt lat="45.37664" lon="3.74347">
        <ele>692.5</ele>
        <time>2012-06-07T09:55:58Z</time>
      </trkpt>
      <trkpt lat="45.3767" lon="3.7435">
        <ele>688</ele>
        <time>2012-06-07T09:56:02Z</time>
      </trkpt>
      <trkpt lat="45.37676" lon="3.74351">
        <ele>682.29998779297</ele>
        <time>2012-06-07T09:56:06Z</time>
      </trkpt>
      <trkpt lat="45.37683" lon="3.74353">
        <ele>682.20001220703</ele>
        <time>2012-06-07T09:56:09Z</time>
      </trkpt>
      <trkpt lat="45.37686" lon="3.74358">
        <ele>681.29998779297</ele>
        <time>2012-06-07T09:56:12Z</time>
      </trkpt>
      <trkpt lat="45.37692" lon="3.74363">
        <ele>682</ele>
        <time>2012-06-07T09:56:14Z</time>
      </trkpt>
      <trkpt lat="45.37697" lon="3.74364">
        <ele>682.09997558594</ele>
        <time>2012-06-07T09:56:17Z</time>
      </trkpt>
      <trkpt lat="45.37702" lon="3.74368">
        <ele>680.20001220703</ele>
        <time>2012-06-07T09:56:20Z</time>
      </trkpt>
      <trkpt lat="45.37707" lon="3.74373">
        <ele>679.5</ele>
        <time>2012-06-07T09:56:23Z</time>
      </trkpt>
      <trkpt lat="45.37714" lon="3.74377">
        <ele>678.09997558594</ele>
        <time>2012-06-07T09:56:25Z</time>
      </trkpt>
      <trkpt lat="45.37721" lon="3.74378">
        <ele>676.90002441406</ele>
        <time>2012-06-07T09:56:28Z</time>
      </trkpt>
      <trkpt lat="45.37727" lon="3.7438">
        <ele>676.70001220703</ele>
        <time>2012-06-07T09:56:31Z</time>
      </trkpt>
      <trkpt lat="45.37732" lon="3.7438">
        <ele>677.20001220703</ele>
        <time>2012-06-07T09:56:33Z</time>
      </trkpt>
      <trkpt lat="45.37736" lon="3.74381">
        <ele>676.70001220703</ele>
        <time>2012-06-07T09:56:35Z</time>
      </trkpt>
      <trkpt lat="45.37742" lon="3.74383">
        <ele>677.20001220703</ele>
        <time>2012-06-07T09:56:38Z</time>
      </trkpt>
      <trkpt lat="45.37752" lon="3.74387">
        <ele>674.70001220703</ele>
        <time>2012-06-07T09:56:44Z</time>
      </trkpt>
      <trkpt lat="45.37758" lon="3.74388">
        <ele>674.70001220703</ele>
        <time>2012-06-07T09:56:46Z</time>
      </trkpt>
      <trkpt lat="45.37763" lon="3.74393">
        <ele>673</ele>
        <time>2012-06-07T09:56:49Z</time>
      </trkpt>
      <trkpt lat="45.37769" lon="3.74394">
        <ele>671.40002441406</ele>
        <time>2012-06-07T09:56:52Z</time>
      </trkpt>
      <trkpt lat="45.37774" lon="3.74394">
        <ele>671.20001220703</ele>
        <time>2012-06-07T09:56:56Z</time>
      </trkpt>
      <trkpt lat="45.3778" lon="3.74393">
        <ele>670.59997558594</ele>
        <time>2012-06-07T09:56:59Z</time>
      </trkpt>
      <trkpt lat="45.37787" lon="3.74391">
        <ele>668.5</ele>
        <time>2012-06-07T09:57:01Z</time>
      </trkpt>
      <trkpt lat="45.37792" lon="3.74391">
        <ele>668.40002441406</ele>
        <time>2012-06-07T09:57:03Z</time>
      </trkpt>
      <trkpt lat="45.37801" lon="3.7439">
        <ele>667.5</ele>
        <time>2012-06-07T09:57:07Z</time>
      </trkpt>
      <trkpt lat="45.3781" lon="3.74387">
        <ele>668.20001220703</ele>
        <time>2012-06-07T09:57:12Z</time>
      </trkpt>
      <trkpt lat="45.37815" lon="3.74386">
        <ele>668.79998779297</ele>
        <time>2012-06-07T09:57:18Z</time>
      </trkpt>
      <trkpt lat="45.37821" lon="3.74388">
        <ele>669.20001220703</ele>
        <time>2012-06-07T09:57:21Z</time>
      </trkpt>
      <trkpt lat="45.37827" lon="3.74392">
        <ele>668</ele>
        <time>2012-06-07T09:57:24Z</time>
      </trkpt>
      <trkpt lat="45.37831" lon="3.74396">
        <ele>667.70001220703</ele>
        <time>2012-06-07T09:57:27Z</time>
      </trkpt>
      <trkpt lat="45.37834" lon="3.74401">
        <ele>667.59997558594</ele>
        <time>2012-06-07T09:57:29Z</time>
      </trkpt>
      <trkpt lat="45.37836" lon="3.74407">
        <ele>668</ele>
        <time>2012-06-07T09:57:34Z</time>
      </trkpt>
      <trkpt lat="45.37838" lon="3.74414">
        <ele>667.59997558594</ele>
        <time>2012-06-07T09:57:36Z</time>
      </trkpt>
      <trkpt lat="45.37839" lon="3.74421">
        <ele>666.90002441406</ele>
        <time>2012-06-07T09:57:38Z</time>
      </trkpt>
      <trkpt lat="45.37841" lon="3.74429">
        <ele>665.20001220703</ele>
        <time>2012-06-07T09:57:40Z</time>
      </trkpt>
      <trkpt lat="45.37843" lon="3.74436">
        <ele>664</ele>
        <time>2012-06-07T09:57:42Z</time>
      </trkpt>
      <trkpt lat="45.37845" lon="3.74442">
        <ele>663.40002441406</ele>
        <time>2012-06-07T09:57:44Z</time>
      </trkpt>
      <trkpt lat="45.3785" lon="3.74459">
        <ele>664.59997558594</ele>
        <time>2012-06-07T09:57:49Z</time>
      </trkpt>
      <trkpt lat="45.37855" lon="3.74472">
        <ele>663.79998779297</ele>
        <time>2012-06-07T09:57:55Z</time>
      </trkpt>
      <trkpt lat="45.37857" lon="3.74478">
        <ele>663.70001220703</ele>
        <time>2012-06-07T09:57:57Z</time>
      </trkpt>
      <trkpt lat="45.3786" lon="3.74484">
        <ele>663.29998779297</ele>
        <time>2012-06-07T09:57:59Z</time>
      </trkpt>
      <trkpt lat="45.37865" lon="3.74489">
        <ele>662</ele>
        <time>2012-06-07T09:58:01Z</time>
      </trkpt>
      <trkpt lat="45.37869" lon="3.74496">
        <ele>661.59997558594</ele>
        <time>2012-06-07T09:58:03Z</time>
      </trkpt>
      <trkpt lat="45.37873" lon="3.74503">
        <ele>661.90002441406</ele>
        <time>2012-06-07T09:58:06Z</time>
      </trkpt>
      <trkpt lat="45.37877" lon="3.74509">
        <ele>661.29998779297</ele>
        <time>2012-06-07T09:58:09Z</time>
      </trkpt>
      <trkpt lat="45.37881" lon="3.74517">
        <ele>661.09997558594</ele>
        <time>2012-06-07T09:58:12Z</time>
      </trkpt>
      <trkpt lat="45.37885" lon="3.74522">
        <ele>660.90002441406</ele>
        <time>2012-06-07T09:58:14Z</time>
      </trkpt>
      <trkpt lat="45.37887" lon="3.74528">
        <ele>660.59997558594</ele>
        <time>2012-06-07T09:58:17Z</time>
      </trkpt>
      <trkpt lat="45.37892" lon="3.74535">
        <ele>660.40002441406</ele>
        <time>2012-06-07T09:58:20Z</time>
      </trkpt>
      <trkpt lat="45.37895" lon="3.7454">
        <ele>660.79998779297</ele>
        <time>2012-06-07T09:58:22Z</time>
      </trkpt>
      <trkpt lat="45.37899" lon="3.74544">
        <ele>659.70001220703</ele>
        <time>2012-06-07T09:58:25Z</time>
      </trkpt>
      <trkpt lat="45.37902" lon="3.7455">
        <ele>659.90002441406</ele>
        <time>2012-06-07T09:58:27Z</time>
      </trkpt>
      <trkpt lat="45.37905" lon="3.74557">
        <ele>660</ele>
        <time>2012-06-07T09:58:30Z</time>
      </trkpt>
      <trkpt lat="45.37909" lon="3.74562">
        <ele>660.5</ele>
        <time>2012-06-07T09:58:32Z</time>
      </trkpt>
      <trkpt lat="45.37911" lon="3.74567">
        <ele>660.40002441406</ele>
        <time>2012-06-07T09:58:34Z</time>
      </trkpt>
      <trkpt lat="45.37914" lon="3.74576">
        <ele>661.40002441406</ele>
        <time>2012-06-07T09:58:37Z</time>
      </trkpt>
      <trkpt lat="45.37918" lon="3.74579">
        <ele>661.90002441406</ele>
        <time>2012-06-07T09:58:39Z</time>
      </trkpt>
      <trkpt lat="45.37923" lon="3.74588">
        <ele>661.70001220703</ele>
        <time>2012-06-07T09:58:43Z</time>
      </trkpt>
      <trkpt lat="45.37927" lon="3.74594">
        <ele>661.79998779297</ele>
        <time>2012-06-07T09:58:45Z</time>
      </trkpt>
      <trkpt lat="45.3793" lon="3.746">
        <ele>662.20001220703</ele>
        <time>2012-06-07T09:58:48Z</time>
      </trkpt>
      <trkpt lat="45.37935" lon="3.74603">
        <ele>662</ele>
        <time>2012-06-07T09:58:50Z</time>
      </trkpt>
      <trkpt lat="45.3794" lon="3.74608">
        <ele>662</ele>
        <time>2012-06-07T09:58:53Z</time>
      </trkpt>
      <trkpt lat="45.37944" lon="3.74611">
        <ele>661.79998779297</ele>
        <time>2012-06-07T09:58:55Z</time>
      </trkpt>
      <trkpt lat="45.37949" lon="3.74615">
        <ele>661.40002441406</ele>
        <time>2012-06-07T09:58:58Z</time>
      </trkpt>
      <trkpt lat="45.37955" lon="3.7462">
        <ele>661.70001220703</ele>
        <time>2012-06-07T09:59:01Z</time>
      </trkpt>
      <trkpt lat="45.37958" lon="3.74626">
        <ele>661.59997558594</ele>
        <time>2012-06-07T09:59:04Z</time>
      </trkpt>
      <trkpt lat="45.37964" lon="3.74635">
        <ele>662.29998779297</ele>
        <time>2012-06-07T09:59:09Z</time>
      </trkpt>
      <trkpt lat="45.37971" lon="3.74654">
        <ele>660.5</ele>
        <time>2012-06-07T09:59:18Z</time>
      </trkpt>
      <trkpt lat="45.37976" lon="3.74661">
        <ele>661.29998779297</ele>
        <time>2012-06-07T09:59:20Z</time>
      </trkpt>
      <trkpt lat="45.37982" lon="3.74664">
        <ele>662.70001220703</ele>
        <time>2012-06-07T09:59:21Z</time>
      </trkpt>
      <trkpt lat="45.37984" lon="3.74669">
        <ele>662.59997558594</ele>
        <time>2012-06-07T09:59:23Z</time>
      </trkpt>
      <trkpt lat="45.37986" lon="3.74663">
        <ele>659.73101806641</ele>
        <time>2012-06-07T09:59:24Z</time>
      </trkpt>
      <trkpt lat="45.37987" lon="3.74673">
        <ele>660.90002441406</ele>
        <time>2012-06-07T09:59:26Z</time>
      </trkpt>
      <trkpt lat="45.37989" lon="3.74678">
        <ele>660.09997558594</ele>
        <time>2012-06-07T09:59:28Z</time>
      </trkpt>
      <trkpt lat="45.37993" lon="3.74684">
        <ele>654.40002441406</ele>
        <time>2012-06-07T09:59:31Z</time>
      </trkpt>
      <trkpt lat="45.37997" lon="3.7469">
        <ele>657.20001220703</ele>
        <time>2012-06-07T09:59:33Z</time>
      </trkpt>
      <trkpt lat="45.37999" lon="3.74696">
        <ele>658.20001220703</ele>
        <time>2012-06-07T09:59:35Z</time>
      </trkpt>
      <trkpt lat="45.38008" lon="3.74715">
        <ele>654.59997558594</ele>
        <time>2012-06-07T09:59:41Z</time>
      </trkpt>
      <trkpt lat="45.38015" lon="3.7472">
        <ele>655.09997558594</ele>
        <time>2012-06-07T09:59:43Z</time>
      </trkpt>
      <trkpt lat="45.38019" lon="3.74726">
        <ele>654.29998779297</ele>
        <time>2012-06-07T09:59:46Z</time>
      </trkpt>
      <trkpt lat="45.38022" lon="3.74722">
        <ele>656.59997558594</ele>
        <time>2012-06-07T09:59:47Z</time>
      </trkpt>
      <trkpt lat="45.38028" lon="3.74727">
        <ele>656</ele>
        <time>2012-06-07T09:59:50Z</time>
      </trkpt>
      <trkpt lat="45.38032" lon="3.74733">
        <ele>653.70001220703</ele>
        <time>2012-06-07T09:59:54Z</time>
      </trkpt>
      <trkpt lat="45.38037" lon="3.74738">
        <ele>654.59997558594</ele>
        <time>2012-06-07T09:59:57Z</time>
      </trkpt>
      <trkpt lat="45.38044" lon="3.74744">
        <ele>655.70001220703</ele>
        <time>2012-06-07T10:00:01Z</time>
      </trkpt>
      <trkpt lat="45.38046" lon="3.7475">
        <ele>655.59997558594</ele>
        <time>2012-06-07T10:00:03Z</time>
      </trkpt>
      <trkpt lat="45.38055" lon="3.74753">
        <ele>655.79998779297</ele>
        <time>2012-06-07T10:00:05Z</time>
      </trkpt>
      <trkpt lat="45.38061" lon="3.74757">
        <ele>655.70001220703</ele>
        <time>2012-06-07T10:00:07Z</time>
      </trkpt>
      <trkpt lat="45.38065" lon="3.7476">
        <ele>656.20001220703</ele>
        <time>2012-06-07T10:00:09Z</time>
      </trkpt>
      <trkpt lat="45.38069" lon="3.74765">
        <ele>656.20001220703</ele>
        <time>2012-06-07T10:00:13Z</time>
      </trkpt>
      <trkpt lat="45.38078" lon="3.74773">
        <ele>655.79998779297</ele>
        <time>2012-06-07T10:00:19Z</time>
      </trkpt>
      <trkpt lat="45.38085" lon="3.7478">
        <ele>655.29998779297</ele>
        <time>2012-06-07T10:00:24Z</time>
      </trkpt>
      <trkpt lat="45.38089" lon="3.74784">
        <ele>656.5</ele>
        <time>2012-06-07T10:00:26Z</time>
      </trkpt>
      <trkpt lat="45.38093" lon="3.74791">
        <ele>655.70001220703</ele>
        <time>2012-06-07T10:00:29Z</time>
      </trkpt>
      <trkpt lat="45.38096" lon="3.74796">
        <ele>656</ele>
        <time>2012-06-07T10:00:31Z</time>
      </trkpt>
      <trkpt lat="45.38099" lon="3.74803">
        <ele>656.90002441406</ele>
        <time>2012-06-07T10:00:34Z</time>
      </trkpt>
      <trkpt lat="45.38103" lon="3.74809">
        <ele>657.20001220703</ele>
        <time>2012-06-07T10:00:37Z</time>
      </trkpt>
      <trkpt lat="45.38106" lon="3.74816">
        <ele>656.5</ele>
        <time>2012-06-07T10:00:40Z</time>
      </trkpt>
      <trkpt lat="45.3811" lon="3.74823">
        <ele>655.90002441406</ele>
        <time>2012-06-07T10:00:43Z</time>
      </trkpt>
      <trkpt lat="45.38113" lon="3.74832">
        <ele>655.90002441406</ele>
        <time>2012-06-07T10:00:46Z</time>
      </trkpt>
      <trkpt lat="45.38119" lon="3.74844">
        <ele>655.09997558594</ele>
        <time>2012-06-07T10:00:50Z</time>
      </trkpt>
      <trkpt lat="45.38121" lon="3.7485">
        <ele>655.29998779297</ele>
        <time>2012-06-07T10:00:52Z</time>
      </trkpt>
      <trkpt lat="45.38123" lon="3.74858">
        <ele>655.29998779297</ele>
        <time>2012-06-07T10:00:55Z</time>
      </trkpt>
      <trkpt lat="45.3813" lon="3.7487">
        <ele>656.09997558594</ele>
        <time>2012-06-07T10:01:00Z</time>
      </trkpt>
      <trkpt lat="45.38135" lon="3.74877">
        <ele>656.59997558594</ele>
        <time>2012-06-07T10:01:03Z</time>
      </trkpt>
      <trkpt lat="45.38139" lon="3.74884">
        <ele>657.40002441406</ele>
        <time>2012-06-07T10:01:06Z</time>
      </trkpt>
      <trkpt lat="45.38144" lon="3.74888">
        <ele>657.79998779297</ele>
        <time>2012-06-07T10:01:08Z</time>
      </trkpt>
      <trkpt lat="45.38149" lon="3.7489">
        <ele>657.59997558594</ele>
        <time>2012-06-07T10:01:10Z</time>
      </trkpt>
      <trkpt lat="45.38153" lon="3.74894">
        <ele>658.09997558594</ele>
        <time>2012-06-07T10:01:13Z</time>
      </trkpt>
      <trkpt lat="45.38157" lon="3.74899">
        <ele>658.70001220703</ele>
        <time>2012-06-07T10:01:15Z</time>
      </trkpt>
      <trkpt lat="45.38161" lon="3.74902">
        <ele>658.79998779297</ele>
        <time>2012-06-07T10:01:17Z</time>
      </trkpt>
      <trkpt lat="45.38166" lon="3.74907">
        <ele>658.70001220703</ele>
        <time>2012-06-07T10:01:20Z</time>
      </trkpt>
      <trkpt lat="45.38171" lon="3.74914">
        <ele>659</ele>
        <time>2012-06-07T10:01:24Z</time>
      </trkpt>
      <trkpt lat="45.38175" lon="3.74918">
        <ele>658.5</ele>
        <time>2012-06-07T10:01:26Z</time>
      </trkpt>
      <trkpt lat="45.38178" lon="3.74922">
        <ele>658.79998779297</ele>
        <time>2012-06-07T10:01:28Z</time>
      </trkpt>
      <trkpt lat="45.38183" lon="3.74927">
        <ele>658.09997558594</ele>
        <time>2012-06-07T10:01:31Z</time>
      </trkpt>
      <trkpt lat="45.38192" lon="3.74936">
        <ele>656.59997558594</ele>
        <time>2012-06-07T10:01:35Z</time>
      </trkpt>
      <trkpt lat="45.38197" lon="3.74939">
        <ele>656.29998779297</ele>
        <time>2012-06-07T10:01:37Z</time>
      </trkpt>
      <trkpt lat="45.38201" lon="3.74945">
        <ele>655.90002441406</ele>
        <time>2012-06-07T10:01:40Z</time>
      </trkpt>
      <trkpt lat="45.38205" lon="3.7495">
        <ele>655.40002441406</ele>
        <time>2012-06-07T10:01:42Z</time>
      </trkpt>
      <trkpt lat="45.38205" lon="3.74956">
        <ele>654.70001220703</ele>
        <time>2012-06-07T10:01:44Z</time>
      </trkpt>
      <trkpt lat="45.38208" lon="3.74963">
        <ele>655.90002441406</ele>
        <time>2012-06-07T10:01:46Z</time>
      </trkpt>
      <trkpt lat="45.38213" lon="3.74968">
        <ele>657</ele>
        <time>2012-06-07T10:01:49Z</time>
      </trkpt>
      <trkpt lat="45.38217" lon="3.74974">
        <ele>656.79998779297</ele>
        <time>2012-06-07T10:01:52Z</time>
      </trkpt>
      <trkpt lat="45.38221" lon="3.74978">
        <ele>656.40002441406</ele>
        <time>2012-06-07T10:01:55Z</time>
      </trkpt>
      <trkpt lat="45.38222" lon="3.74971">
        <ele>657.29998779297</ele>
        <time>2012-06-07T10:02:00Z</time>
      </trkpt>
      <trkpt lat="45.3822" lon="3.74964">
        <ele>657.09997558594</ele>
        <time>2012-06-07T10:02:02Z</time>
      </trkpt>
      <trkpt lat="45.38217" lon="3.74959">
        <ele>656.59997558594</ele>
        <time>2012-06-07T10:02:04Z</time>
      </trkpt>
      <trkpt lat="45.38214" lon="3.74954">
        <ele>656</ele>
        <time>2012-06-07T10:02:06Z</time>
      </trkpt>
      <trkpt lat="45.38209" lon="3.74947">
        <ele>654.5</ele>
        <time>2012-06-07T10:02:09Z</time>
      </trkpt>
      <trkpt lat="45.38205" lon="3.74942">
        <ele>655.70001220703</ele>
        <time>2012-06-07T10:02:11Z</time>
      </trkpt>
      <trkpt lat="45.38197" lon="3.74933">
        <ele>655.5</ele>
        <time>2012-06-07T10:02:16Z</time>
      </trkpt>
      <trkpt lat="45.38192" lon="3.74933">
        <ele>655.29998779297</ele>
        <time>2012-06-07T10:02:18Z</time>
      </trkpt>
      <trkpt lat="45.38187" lon="3.74931">
        <ele>654.79998779297</ele>
        <time>2012-06-07T10:02:21Z</time>
      </trkpt>
      <trkpt lat="45.38183" lon="3.74928">
        <ele>654.5</ele>
        <time>2012-06-07T10:02:23Z</time>
      </trkpt>
      <trkpt lat="45.38178" lon="3.74925">
        <ele>654.79998779297</ele>
        <time>2012-06-07T10:02:25Z</time>
      </trkpt>
      <trkpt lat="45.38174" lon="3.74921">
        <ele>654.79998779297</ele>
        <time>2012-06-07T10:02:27Z</time>
      </trkpt>
      <trkpt lat="45.38162" lon="3.74908">
        <ele>653.09997558594</ele>
        <time>2012-06-07T10:02:34Z</time>
      </trkpt>
      <trkpt lat="45.38157" lon="3.74903">
        <ele>653.79998779297</ele>
        <time>2012-06-07T10:02:36Z</time>
      </trkpt>
      <trkpt lat="45.38155" lon="3.74897">
        <ele>654.09997558594</ele>
        <time>2012-06-07T10:02:38Z</time>
      </trkpt>
      <trkpt lat="45.3815" lon="3.74893">
        <ele>653.90002441406</ele>
        <time>2012-06-07T10:02:41Z</time>
      </trkpt>
      <trkpt lat="45.38145" lon="3.74891">
        <ele>654.20001220703</ele>
        <time>2012-06-07T10:02:44Z</time>
      </trkpt>
      <trkpt lat="45.3814" lon="3.74888">
        <ele>657.20001220703</ele>
        <time>2012-06-07T10:02:46Z</time>
      </trkpt>
      <trkpt lat="45.38134" lon="3.74886">
        <ele>656.90002441406</ele>
        <time>2012-06-07T10:02:49Z</time>
      </trkpt>
      <trkpt lat="45.38129" lon="3.74885">
        <ele>657</ele>
        <time>2012-06-07T10:02:51Z</time>
      </trkpt>
      <trkpt lat="45.38124" lon="3.74881">
        <ele>656.5</ele>
        <time>2012-06-07T10:02:54Z</time>
      </trkpt>
      <trkpt lat="45.38119" lon="3.74879">
        <ele>656.5</ele>
        <time>2012-06-07T10:02:56Z</time>
      </trkpt>
      <trkpt lat="45.38114" lon="3.74877">
        <ele>655.29998779297</ele>
        <time>2012-06-07T10:02:59Z</time>
      </trkpt>
      <trkpt lat="45.38108" lon="3.74873">
        <ele>656.20001220703</ele>
        <time>2012-06-07T10:03:02Z</time>
      </trkpt>
      <trkpt lat="45.38102" lon="3.74873">
        <ele>659.40002441406</ele>
        <time>2012-06-07T10:03:05Z</time>
      </trkpt>
      <trkpt lat="45.38096" lon="3.74873">
        <ele>659.70001220703</ele>
        <time>2012-06-07T10:03:08Z</time>
      </trkpt>
      <trkpt lat="45.3809" lon="3.74873">
        <ele>659.90002441406</ele>
        <time>2012-06-07T10:03:11Z</time>
      </trkpt>
    </trkseg>
  </trk>
</gpx>